Time;durP1;ratioP1;P1;durP2;ratioP2;P2;SDS_P1;SDS_P2;PMS_P1;PMS_P2;Temp;Humidity;BMP_temperature;BMP_pressure;BME280_temperature;BME280_humidity;BME280_pressure;Samples;Min_cycle;Max_cycle;Signal;HPM_P1;HPM_P2
2022/12/01 00:01:11;;;;;;;36.80;19.65;;;7.30;99.90;;;;;;4966554;28;20109;-61
2022/12/01 00:03:38;;;;;;;34.78;20.75;;;7.40;99.90;;;;;;4967829;28;20321;-61
2022/12/01 00:06:10;;;;;;;38.58;21.65;;;7.40;99.90;;;;;;4968027;28;20065;-61
2022/12/01 00:08:37;;;;;;;39.55;20.60;;;7.40;99.90;;;;;;4967758;28;20051;-61
2022/12/01 00:11:08;;;;;;;43.05;21.42;;;7.50;99.90;;;;;;4967925;28;20049;-62
2022/12/01 00:13:38;;;;;;;36.78;21.20;;;7.50;99.90;;;;;;4982263;28;20057;-62
2022/12/01 00:16:10;;;;;;;40.75;21.75;;;7.50;99.90;;;;;;4982942;28;20093;-62
2022/12/01 00:18:37;;;;;;;46.28;22.90;;;7.50;99.90;;;;;;4967374;28;20506;-61
2022/12/01 00:21:04;;;;;;;42.70;22.08;;;7.50;99.90;;;;;;4966323;28;20054;-61
2022/12/01 00:23:31;;;;;;;40.58;21.85;;;7.50;99.90;;;;;;4969478;28;20090;-62
2022/12/01 00:26:05;;;;;;;39.78;20.35;;;7.50;99.90;;;;;;4970609;28;20049;-61
2022/12/01 00:28:31;;;;;;;37.90;21.48;;;7.50;99.90;;;;;;4969963;28;20149;-61
2022/12/01 00:30:59;;;;;;;37.17;20.88;;;7.50;99.90;;;;;;4955837;28;20130;-62
2022/12/01 00:33:25;;;;;;;39.13;20.13;;;7.60;99.90;;;;;;4962801;28;20043;-60
2022/12/01 00:35:59;;;;;;;37.45;19.98;;;7.60;99.90;;;;;;4959164;28;20130;-61
2022/12/01 00:38:26;;;;;;;37.03;21.47;;;7.60;99.90;;;;;;4961543;28;20147;-60
2022/12/01 00:40:53;;;;;;;42.80;21.80;;;7.60;99.90;;;;;;4957621;28;20092;-61
2022/12/01 00:43:19;;;;;;;41.05;21.83;;;7.60;99.90;;;;;;4963167;28;20137;-61
2022/12/01 00:45:46;;;;;;;42.90;21.75;;;7.60;99.90;;;;;;4966423;28;20105;-61
2022/12/01 00:48:13;;;;;;;38.60;20.60;;;7.60;99.90;;;;;;4961393;28;20142;-61
2022/12/01 00:50:40;;;;;;;42.55;22.95;;;7.50;99.90;;;;;;4965562;28;20078;-61
2022/12/01 00:53:07;;;;;;;39.60;20.20;;;7.50;99.90;;;;;;4966080;28;20082;-61
2022/12/01 00:55:34;;;;;;;36.25;20.17;;;7.60;99.90;;;;;;4967953;28;20046;-61
2022/12/01 00:58:01;;;;;;;44.85;22.88;;;7.60;99.90;;;;;;4967945;28;20070;-61
2022/12/01 01:00:27;;;;;;;38.00;21.15;;;7.60;99.90;;;;;;4967283;28;20105;-60
2022/12/01 01:02:54;;;;;;;41.03;20.70;;;7.60;99.90;;;;;;4968720;28;20047;-60
2022/12/01 01:05:22;;;;;;;36.90;21.17;;;7.50;99.90;;;;;;4969672;28;20082;-60
2022/12/01 01:07:49;;;;;;;38.85;21.80;;;7.50;99.90;;;;;;4969635;28;20055;-60
2022/12/01 01:10:16;;;;;;;39.40;20.98;;;7.50;99.90;;;;;;4969312;28;20043;-61
2022/12/01 01:12:42;;;;;;;40.30;21.70;;;7.50;99.90;;;;;;4969763;28;20055;-61
2022/12/01 01:15:09;;;;;;;39.25;19.83;;;7.50;99.90;;;;;;4969379;28;20050;-61
2022/12/01 01:17:36;;;;;;;32.55;19.83;;;7.50;99.90;;;;;;4969805;28;20161;-60
2022/12/01 01:20:05;;;;;;;35.50;21.13;;;7.50;99.90;;;;;;4969614;28;20473;-61
2022/12/01 01:22:34;;;;;;;45.40;21.05;;;7.60;99.90;;;;;;4967951;28;20090;-61
2022/12/01 01:25:00;;;;;;;38.38;20.65;;;7.50;99.90;;;;;;4969650;28;20070;-60
2022/12/01 01:27:27;;;;;;;42.50;20.30;;;7.50;99.90;;;;;;4969378;28;20519;-61
2022/12/01 01:29:54;;;;;;;36.80;20.92;;;7.50;99.90;;;;;;4969058;28;20150;-61
2022/12/01 01:32:20;;;;;;;45.97;21.15;;;7.50;99.90;;;;;;4969405;28;20166;-61
2022/12/01 01:34:47;;;;;;;39.00;21.50;;;7.50;99.90;;;;;;4969842;28;20121;-61
2022/12/01 01:37:14;;;;;;;40.45;20.45;;;7.40;99.90;;;;;;4969391;28;20137;-61
2022/12/01 01:39:41;;;;;;;37.20;21.45;;;7.40;99.90;;;;;;4969119;28;20522;-61
2022/12/01 01:42:11;;;;;;;41.53;20.75;;;7.30;99.90;;;;;;4969237;28;20046;-61
2022/12/01 01:44:49;;;;;;;42.28;21.23;;;7.20;99.90;;;;;;4952590;28;20085;-60
2022/12/01 01:47:33;;;;;;;41.20;20.13;;;7.10;99.90;;;;;;4959418;28;20092;-61
2022/12/01 01:50:05;;;;;;;40.47;18.67;;;7.10;99.90;;;;;;4969102;28;20070;-61
2022/12/01 01:52:33;;;;;;;39.95;21.13;;;7.00;99.90;;;;;;4958545;28;20432;-61
2022/12/01 01:55:00;;;;;;;37.22;21.23;;;6.90;99.90;;;;;;4967507;28;20612;-61
2022/12/01 01:57:28;;;;;;;40.80;20.38;;;6.90;99.90;;;;;;4978836;28;20085;-61
2022/12/01 02:00:00;;;;;;;35.40;19.52;;;6.80;99.90;;;;;;4953581;28;20105;-61
2022/12/01 02:02:27;;;;;;;45.58;21.08;;;6.80;99.90;;;;;;4973275;28;20102;-61
2022/12/01 02:05:00;;;;;;;36.75;18.88;;;6.80;99.90;;;;;;4971892;28;20110;-60
2022/12/01 02:07:26;;;;;;;36.78;21.20;;;6.80;99.90;;;;;;4963294;28;20051;-60
2022/12/01 02:09:53;;;;;;;34.78;20.50;;;6.80;99.90;;;;;;4972033;28;20146;-60
2022/12/01 02:12:33;;;;;;;35.88;17.70;;;6.80;99.90;;;;;;4975368;28;20070;-60
2022/12/01 02:15:22;;;;;;;30.30;17.42;;;6.80;99.90;;;;;;4973403;28;20055;-60
2022/12/01 02:18:10;;;;;;;34.85;18.02;;;6.70;99.90;;;;;;4968365;28;20158;-60
2022/12/01 02:21:07;;;;;;;28.30;16.42;;;6.80;99.90;;;;;;4973211;28;20075;-60
2022/12/01 02:24:12;;;;;;;29.52;15.73;;;6.70;99.90;;;;;;4970397;28;20454;-61
2022/12/01 02:26:57;;;;;;;;;;;6.60;99.90;;;;;;4972217;28;20046;-60
2022/12/01 02:29:52;;;;;;;22.50;15.00;;;6.50;99.90;;;;;;4972649;28;20021;-60
2022/12/01 02:32:22;;;;;;;32.05;14.95;;;6.50;99.90;;;;;;4975281;28;20074;-60
2022/12/01 02:35:22;;;;;;;27.75;13.98;;;6.50;99.90;;;;;;4972491;28;20398;-60
2022/12/01 02:38:03;;;;;;;33.53;16.15;;;6.50;99.90;;;;;;4972468;28;20075;-60
2022/12/01 02:40:39;;;;;;;34.83;17.35;;;6.50;99.90;;;;;;4953174;28;20134;-61
2022/12/01 02:43:26;;;;;;;36.55;17.60;;;6.60;99.90;;;;;;4984121;28;20078;-61
2022/12/01 02:45:57;;;;;;;28.63;17.38;;;6.60;99.90;;;;;;4973254;28;20563;-60
2022/12/01 02:48:29;;;;;;;40.58;18.98;;;6.60;99.90;;;;;;4974850;28;20113;-60
2022/12/01 02:50:58;;;;;;;35.05;15.95;;;6.60;99.90;;;;;;4955785;28;20130;-60
2022/12/01 02:53:25;;;;;;;37.70;15.95;;;6.60;99.90;;;;;;4970665;28;20043;-60
2022/12/01 02:55:53;;;;;;;38.72;16.92;;;6.50;99.90;;;;;;4971258;28;20451;-60
2022/12/01 02:58:20;;;;;;;34.42;17.17;;;6.50;99.90;;;;;;4974742;28;20089;-60
2022/12/01 03:01:05;;;;;;;36.17;17.17;;;6.60;99.90;;;;;;4985745;28;20133;-60
2022/12/01 03:04:08;;;;;;;37.90;18.00;;;6.60;99.90;;;;;;4971609;28;20538;-60
2022/12/01 03:06:40;;;;;;;30.17;17.13;;;6.60;99.90;;;;;;4952952;28;20494;-61
2022/12/01 03:09:32;;;;;;;34.05;17.77;;;6.60;99.90;;;;;;4985390;28;20427;-61
2022/12/01 03:12:20;;;;;;;33.88;17.65;;;6.70;99.90;;;;;;4972039;28;20138;-60
2022/12/01 03:15:17;;;;;;;30.67;17.23;;;6.70;99.90;;;;;;4981521;28;20070;-60
2022/12/01 03:17:51;;;;;;;38.30;18.13;;;6.70;99.90;;;;;;4971931;28;20113;-61
2022/12/01 03:20:54;;;;;;;30.33;16.17;;;6.70;99.90;;;;;;4981758;28;20101;-62
2022/12/01 03:23:22;;;;;;;35.03;18.70;;;6.80;99.90;;;;;;4966186;28;20090;-61
2022/12/01 03:25:50;;;;;;;31.27;16.65;;;6.80;99.90;;;;;;4978633;28;20109;-61
2022/12/01 03:28:19;;;;;;;28.63;16.02;;;6.80;99.90;;;;;;4969042;28;20138;-60
2022/12/01 03:30:49;;;;;;;31.85;17.52;;;6.80;99.90;;;;;;4976782;28;20055;-61
2022/12/01 03:33:24;;;;;;;35.45;17.98;;;6.80;99.90;;;;;;4985947;28;20409;-61
2022/12/01 03:35:54;;;;;;;27.58;16.92;;;6.80;99.90;;;;;;4952184;28;20125;-61
2022/12/01 03:38:24;;;;;;;31.02;17.83;;;6.80;99.90;;;;;;4970529;28;20055;-61
2022/12/01 03:40:55;;;;;;;31.40;17.05;;;6.80;99.90;;;;;;4971723;28;20090;-61
2022/12/01 03:43:28;;;;;;;32.38;15.65;;;6.80;99.90;;;;;;4954617;28;20130;-60
2022/12/01 03:46:26;;;;;;;34.67;18.85;;;6.70;99.90;;;;;;4980990;28;20082;-60
2022/12/01 03:48:53;;;;;;;34.50;16.25;;;6.70;99.90;;;;;;4971510;28;20130;-60
2022/12/01 03:51:33;;;;;;;28.98;14.60;;;6.80;99.90;;;;;;4981084;28;20414;-60
2022/12/01 03:54:35;;;;;;;33.03;16.73;;;6.80;99.90;;;;;;4954508;28;20137;-61
2022/12/01 03:57:03;;;;;;;27.25;15.30;;;6.80;99.90;;;;;;4961936;28;20057;-61
2022/12/01 03:59:30;;;;;;;30.08;18.52;;;7.00;99.90;;;;;;4982985;28;20561;-60
2022/12/01 04:01:57;;;;;;;27.63;15.75;;;6.80;99.90;;;;;;4977442;28;20090;-60
2022/12/01 04:04:24;;;;;;;33.30;16.73;;;6.80;99.90;;;;;;4967853;28;20055;-59
2022/12/01 04:06:51;;;;;;;30.05;16.73;;;6.90;99.90;;;;;;4969795;28;20082;-61
2022/12/01 04:09:18;;;;;;;31.25;16.42;;;6.90;99.90;;;;;;4970599;28;20890;-60
2022/12/01 04:14:30;;;;;;;28.10;15.90;;;6.90;99.90;;;;;;4970556;28;20070;-61
2022/12/01 04:16:57;;;;;;;27.95;15.52;;;6.90;99.90;;;;;;4970827;28;20101;-61
2022/12/01 04:19:23;;;;;;;27.15;15.52;;;6.90;99.90;;;;;;4970709;28;20125;-61
2022/12/01 04:21:50;;;;;;;31.17;16.08;;;6.90;99.90;;;;;;4970309;28;20121;-61
2022/12/01 04:24:17;;;;;;;29.30;16.42;;;6.90;99.90;;;;;;4970511;28;20047;-61
2022/12/01 04:26:44;;;;;;;32.42;17.20;;;6.90;99.90;;;;;;4970323;28;20047;-61
2022/12/01 04:29:13;;;;;;;30.67;16.83;;;6.90;99.90;;;;;;4970810;28;20130;-61
2022/12/01 04:31:40;;;;;;;41.58;17.50;;;6.80;99.90;;;;;;4969272;28;20066;-61
2022/12/01 04:34:06;;;;;;;29.85;16.70;;;7.00;99.90;;;;;;4970682;28;20046;-61
2022/12/01 04:36:34;;;;;;;25.48;15.27;;;7.00;99.90;;;;;;4970134;28;20478;-60
2022/12/01 04:39:00;;;;;;;26.85;14.10;;;7.00;99.90;;;;;;4970502;28;20078;-61
2022/12/01 04:41:27;;;;;;;23.92;14.07;;;7.00;99.90;;;;;;4969738;28;20051;-61
2022/12/01 04:43:54;;;;;;;27.77;15.65;;;7.00;99.90;;;;;;4980943;28;20101;-60
2022/12/01 04:46:22;;;;;;;29.73;16.10;;;7.00;99.90;;;;;;4969905;28;20051;-61
2022/12/01 04:48:48;;;;;;;26.17;13.82;;;7.00;99.90;;;;;;4969995;28;20078;-61
2022/12/01 04:51:15;;;;;;;30.35;16.45;;;7.00;99.90;;;;;;4969940;28;20342;-61
2022/12/01 04:53:42;;;;;;;26.83;14.50;;;7.00;99.90;;;;;;4976893;28;20109;-61
2022/12/01 04:56:09;;;;;;;25.50;14.05;;;7.00;99.90;;;;;;4969883;28;20494;-61
2022/12/01 04:58:39;;;;;;;30.90;14.43;;;6.90;99.90;;;;;;4963780;28;20142;-61
2022/12/01 05:01:10;;;;;;;29.70;14.65;;;6.90;99.90;;;;;;4970117;28;20086;-64
2022/12/01 05:03:41;;;;;;;27.80;13.00;;;6.90;99.90;;;;;;4970056;28;20078;-61
2022/12/01 05:06:10;;;;;;;24.48;14.43;;;6.80;99.90;;;;;;4969919;28;20105;-61
2022/12/01 05:08:36;;;;;;;23.88;13.70;;;6.80;99.90;;;;;;4970038;28;20130;-61
2022/12/01 05:11:06;;;;;;;26.90;13.77;;;6.80;99.90;;;;;;4969873;28;20093;-61
2022/12/01 05:13:35;;;;;;;26.33;15.23;;;6.80;99.90;;;;;;4969095;28;20082;-64
2022/12/01 05:16:15;;;;;;;28.15;15.10;;;6.80;99.90;;;;;;4969746;28;20121;-61
2022/12/01 05:18:42;;;;;;;21.60;12.38;;;6.80;99.90;;;;;;4969918;28;20097;-61
2022/12/01 05:21:09;;;;;;;26.15;13.07;;;6.80;99.90;;;;;;4970060;28;20053;-61
2022/12/01 05:23:36;;;;;;;23.25;12.68;;;6.80;99.90;;;;;;4969353;28;20086;-60
2022/12/01 05:26:07;;;;;;;28.67;11.77;;;6.80;99.90;;;;;;4969825;28;20054;-60
2022/12/01 05:28:34;;;;;;;23.00;11.95;;;6.80;99.90;;;;;;4969260;28;20529;-60
2022/12/01 05:31:01;;;;;;;19.85;11.20;;;6.80;99.90;;;;;;4969989;28;20121;-60
2022/12/01 05:33:28;;;;;;;22.67;12.30;;;6.80;99.90;;;;;;4969142;28;20065;-60
2022/12/01 05:35:54;;;;;;;18.67;10.30;;;6.80;99.90;;;;;;4982158;28;20100;-60
2022/12/01 05:38:21;;;;;;;20.70;11.13;;;6.70;99.90;;;;;;4969524;28;20092;-60
2022/12/01 05:40:52;;;;;;;26.75;12.00;;;6.80;99.90;;;;;;4969592;28;20078;-61
2022/12/01 05:43:19;;;;;;;18.67;10.65;;;6.70;99.90;;;;;;4984093;28;20096;-60
2022/12/01 05:45:54;;;;;;;25.17;11.82;;;6.70;99.90;;;;;;4969662;28;20061;-61
2022/12/01 05:48:21;;;;;;;19.50;10.18;;;6.60;99.90;;;;;;4969064;28;20484;-61
2022/12/01 05:50:48;;;;;;;19.92;10.43;;;6.60;99.90;;;;;;4969633;28;20078;-60
2022/12/01 05:53:15;;;;;;;19.98;10.30;;;6.60;99.90;;;;;;4969316;28;20050;-60
2022/12/01 05:55:41;;;;;;;23.33;10.88;;;6.70;99.90;;;;;;4969261;28;20153;-61
2022/12/01 05:58:08;;;;;;;20.98;11.18;;;6.70;99.90;;;;;;4969275;28;20394;-61
2022/12/01 06:00:35;;;;;;;21.63;10.95;;;6.70;99.90;;;;;;4969255;28;20051;-60
2022/12/01 06:03:10;;;;;;;20.10;10.23;;;6.70;99.90;;;;;;4968961;28;20051;-60
2022/12/01 06:05:37;;;;;;;20.35;10.98;;;6.70;99.90;;;;;;4969313;28;20057;-61
2022/12/01 06:08:04;;;;;;;19.92;10.15;;;6.70;99.90;;;;;;4968987;28;20129;-61
2022/12/01 06:10:31;;;;;;;17.17;9.88;;;6.70;99.90;;;;;;4969322;28;20101;-61
2022/12/01 06:12:57;;;;;;;16.35;9.82;;;6.70;99.90;;;;;;4969275;28;20047;-60
2022/12/01 06:15:25;;;;;;;21.33;11.88;;;6.70;99.90;;;;;;4968935;28;20054;-61
2022/12/01 06:17:51;;;;;;;21.83;9.73;;;6.60;99.90;;;;;;4969132;28;20134;-61
2022/12/01 06:20:18;;;;;;;25.90;10.43;;;6.60;99.90;;;;;;4968861;28;20138;-61
2022/12/01 06:22:45;;;;;;;21.73;11.15;;;6.60;99.90;;;;;;4969184;28;20403;-62
2022/12/01 06:25:12;;;;;;;19.15;10.88;;;6.50;99.90;;;;;;4969075;28;20047;-62
2022/12/01 06:27:39;;;;;;;18.83;10.85;;;6.50;99.90;;;;;;4968684;28;20501;-63
2022/12/01 06:30:06;;;;;;;17.00;9.25;;;6.50;99.90;;;;;;4968791;28;20074;-62
2022/12/01 06:32:33;;;;;;;20.88;11.77;;;6.50;99.90;;;;;;4968208;28;20150;-61
2022/12/01 06:35:00;;;;;;;19.52;10.07;;;6.50;99.90;;;;;;4968692;28;20043;-62
2022/12/01 06:37:27;;;;;;;24.73;12.20;;;6.60;99.90;;;;;;4977956;28;20138;-61
2022/12/01 06:39:53;;;;;;;21.05;10.65;;;6.60;99.90;;;;;;4968841;28;20138;-61
2022/12/01 06:42:20;;;;;;;19.50;10.20;;;6.60;99.90;;;;;;4969018;28;20051;-61
2022/12/01 06:44:47;;;;;;;19.75;10.20;;;6.50;99.90;;;;;;4968686;28;20074;-61
2022/12/01 06:47:14;;;;;;;17.25;9.70;;;6.50;99.90;;;;;;4971987;28;20101;-61
2022/12/01 06:49:41;;;;;;;19.42;9.68;;;6.40;99.90;;;;;;4970873;28;20101;-61
2022/12/01 06:52:08;;;;;;;16.40;9.45;;;6.40;99.90;;;;;;4972133;28;20070;-61
2022/12/01 06:54:36;;;;;;;17.05;9.48;;;6.30;99.90;;;;;;4972043;28;20137;-60
2022/12/01 06:57:03;;;;;;;19.25;10.52;;;6.30;99.90;;;;;;4971531;28;20053;-62
2022/12/01 06:59:30;;;;;;;19.27;10.35;;;6.30;99.90;;;;;;4971924;28;20078;-61
2022/12/01 07:01:57;;;;;;;26.50;11.90;;;6.30;99.90;;;;;;4971668;28;20047;-61
2022/12/01 07:04:24;;;;;;;24.90;10.77;;;6.30;99.90;;;;;;4970993;28;20077;-61
2022/12/01 07:06:51;;;;;;;16.63;9.88;;;6.20;99.90;;;;;;4971393;28;20565;-61
2022/12/01 07:09:18;;;;;;;20.38;10.95;;;6.20;99.90;;;;;;4986354;28;20046;-61
2022/12/01 07:11:44;;;;;;;21.00;10.35;;;6.20;99.90;;;;;;4971118;28;20134;-61
2022/12/01 07:14:22;;;;;;;14.85;10.02;;;6.10;99.90;;;;;;4984586;28;20134;-61
2022/12/01 07:16:48;;;;;;;20.15;10.32;;;6.00;99.90;;;;;;4974176;28;20182;-61
2022/12/01 07:19:15;;;;;;;18.90;10.48;;;5.90;99.90;;;;;;4971753;28;20102;-61
2022/12/01 07:21:42;;;;;;;21.55;11.15;;;5.90;99.90;;;;;;4971000;28;20058;-61
2022/12/01 07:24:12;;;;;;;19.38;11.32;;;5.80;99.90;;;;;;4971258;28;20047;-60
2022/12/01 07:26:40;;;;;;;22.05;11.63;;;5.80;99.90;;;;;;4971080;28;20097;-60
2022/12/01 07:29:10;;;;;;;17.95;10.65;;;5.80;99.90;;;;;;4971194;28;20414;-60
2022/12/01 07:31:37;;;;;;;21.48;11.45;;;5.90;99.90;;;;;;4970913;28;20150;-60
2022/12/01 07:34:04;;;;;;;23.05;12.10;;;5.80;99.90;;;;;;4978273;28;20458;-61
2022/12/01 07:36:31;;;;;;;21.17;12.20;;;5.80;99.90;;;;;;4971155;28;20760;-60
2022/12/01 07:38:57;;;;;;;23.88;11.90;;;5.90;99.90;;;;;;4971032;28;20553;-63
2022/12/01 07:41:24;;;;;;;23.63;13.13;;;5.90;99.90;;;;;;4970531;28;20046;-63
2022/12/01 07:43:51;;;;;;;23.13;12.43;;;5.90;99.90;;;;;;4970672;28;20082;-60
2022/12/01 07:46:19;;;;;;;19.77;12.27;;;5.90;99.90;;;;;;4971026;28;20080;-64
2022/12/01 07:48:50;;;;;;;29.02;11.43;;;5.90;99.90;;;;;;4980500;28;20141;-61
2022/12/01 07:51:17;;;;;;;21.83;12.10;;;5.90;99.90;;;;;;4970384;28;20142;-60
2022/12/01 07:53:44;;;;;;;23.48;11.18;;;6.00;99.90;;;;;;4969345;28;20064;-61
2022/12/01 07:56:11;;;;;;;21.98;11.45;;;6.00;99.90;;;;;;4969643;28;20131;-62
2022/12/01 07:58:38;;;;;;;24.52;11.48;;;6.00;99.90;;;;;;4983048;28;20053;-62
2022/12/01 08:01:10;;;;;;;21.38;11.88;;;6.00;99.90;;;;;;4970549;28;20062;-63
2022/12/01 08:03:37;;;;;;;20.00;11.52;;;5.90;99.90;;;;;;4969874;28;20272;-61
2022/12/01 08:06:05;;;;;;;20.08;12.57;;;5.90;99.90;;;;;;4969639;28;20150;-62
2022/12/01 08:08:34;;;;;;;21.00;12.20;;;5.90;99.90;;;;;;4969877;28;20102;-62
2022/12/01 08:11:02;;;;;;;22.00;10.30;;;5.90;99.90;;;;;;4970064;28;20054;-60
2022/12/01 08:13:29;;;;;;;19.90;10.45;;;5.90;99.90;;;;;;4970957;28;20499;-60
2022/12/01 08:15:56;;;;;;;20.70;9.98;;;5.90;99.90;;;;;;4968314;28;20053;-61
2022/12/01 08:18:23;;;;;;;25.30;12.23;;;5.80;99.90;;;;;;4967828;28;20050;-61
2022/12/01 08:20:50;;;;;;;27.77;11.13;;;5.80;99.90;;;;;;4982799;28;20674;-61
2022/12/01 08:23:17;;;;;;;26.75;12.90;;;5.80;99.90;;;;;;4968142;28;20074;-61
2022/12/01 08:25:44;;;;;;;23.65;11.10;;;5.90;99.90;;;;;;4968465;28;20128;-61
2022/12/01 08:28:10;;;;;;;17.27;10.50;;;5.90;99.90;;;;;;4968042;28;20130;-61
2022/12/01 08:30:37;;;;;;;26.42;12.32;;;5.90;99.90;;;;;;4969744;28;20056;-60
2022/12/01 08:33:04;;;;;;;22.13;11.60;;;6.00;99.90;;;;;;4969306;28;20085;-60
2022/12/01 08:35:34;;;;;;;21.55;9.93;;;6.10;99.90;;;;;;4969246;28;20081;-60
2022/12/01 08:38:01;;;;;;;25.13;12.25;;;6.10;99.90;;;;;;4969381;28;20390;-60
2022/12/01 08:40:28;;;;;;;28.55;14.07;;;6.10;99.90;;;;;;4969932;28;20138;-61
2022/12/01 08:42:55;;;;;;;22.85;13.35;;;6.20;99.90;;;;;;4970086;28;20062;-61
2022/12/01 08:45:22;;;;;;;30.25;13.27;;;6.30;99.90;;;;;;4969378;28;20061;-61
2022/12/01 08:47:48;;;;;;;19.10;11.13;;;6.30;99.90;;;;;;4969642;28;20082;-61
2022/12/01 08:50:16;;;;;;;23.65;10.95;;;6.40;99.90;;;;;;4971951;28;20138;-62
2022/12/01 08:52:42;;;;;;;25.17;13.60;;;6.50;99.90;;;;;;4969613;28;20450;-62
2022/12/01 08:55:09;;;;;;;24.15;12.32;;;6.60;99.90;;;;;;4964433;28;20660;-62
2022/12/01 08:57:36;;;;;;;23.00;11.73;;;6.60;99.90;;;;;;4966214;28;20073;-61
2022/12/01 09:00:04;;;;;;;24.65;11.50;;;6.70;99.90;;;;;;4967812;28;20085;-61
2022/12/01 09:02:31;;;;;;;24.98;12.15;;;6.80;99.90;;;;;;4978516;28;20085;-62
2022/12/01 09:04:58;;;;;;;19.88;12.00;;;6.90;99.90;;;;;;4967900;28;20122;-61
2022/12/01 09:07:24;;;;;;;23.17;11.73;;;6.90;99.90;;;;;;4968477;28;20142;-61
2022/12/01 09:09:52;;;;;;;21.83;11.60;;;6.90;99.90;;;;;;4968008;28;20502;-61
2022/12/01 09:12:19;;;;;;;23.98;12.25;;;7.00;99.90;;;;;;4969305;28;20054;-61
2022/12/01 09:14:48;;;;;;;21.33;12.27;;;7.00;99.90;;;;;;4953093;28;20097;-61
2022/12/01 09:17:15;;;;;;;31.05;11.52;;;7.00;99.90;;;;;;4969384;28;20046;-61
2022/12/01 09:19:42;;;;;;;24.48;12.52;;;7.10;99.90;;;;;;4967685;28;20047;-62
2022/12/01 09:22:10;;;;;;;17.88;10.73;;;7.10;99.90;;;;;;4967827;28;20058;-62
2022/12/01 09:24:36;;;;;;;21.27;11.32;;;7.00;99.90;;;;;;4969304;28;20138;-60
2022/12/01 09:27:03;;;;;;;22.55;11.30;;;7.10;99.90;;;;;;4972886;28;20535;-61
2022/12/01 09:29:30;;;;;;;14.02;9.02;;;7.10;99.90;;;;;;4969070;28;20535;-61
2022/12/01 09:31:58;;;;;;;19.55;10.50;;;7.10;99.90;;;;;;4979790;28;20078;-61
2022/12/01 09:34:25;;;;;;;23.02;11.05;;;7.10;99.90;;;;;;4969282;28;20059;-61
2022/12/01 09:36:54;;;;;;;24.33;12.45;;;7.10;99.90;;;;;;4968882;28;20047;-61
2022/12/01 09:39:21;;;;;;;24.73;13.65;;;7.10;99.90;;;;;;4969005;28;20093;-61
2022/12/01 09:42:11;;;;;;;20.52;12.57;;;7.10;99.90;;;;;;4968505;28;20089;-61
2022/12/01 09:44:51;;;;;;;29.38;12.07;;;7.10;99.90;;;;;;4968923;28;20486;-61
2022/12/01 09:47:21;;;;;;;27.35;12.23;;;7.10;99.90;;;;;;4982867;28;20142;-62
2022/12/01 09:50:13;;;;;;;22.40;11.45;;;7.10;99.90;;;;;;4969050;28;20050;-62
2022/12/01 09:52:43;;;;;;;23.85;12.02;;;7.10;99.90;;;;;;4971654;28;20055;-61
2022/12/01 09:55:15;;;;;;;18.80;10.98;;;7.20;99.90;;;;;;4968835;28;20047;-62
2022/12/01 09:57:42;;;;;;;22.20;11.02;;;7.30;99.90;;;;;;4971611;28;20166;-62
2022/12/01 10:00:14;;;;;;;16.98;10.60;;;7.30;99.90;;;;;;4951946;28;20138;-63
2022/12/01 10:03:20;;;;;;;19.48;11.88;;;7.40;99.90;;;;;;4978650;28;20097;-62
2022/12/01 10:06:15;;;;;;;23.60;11.30;;;7.40;99.90;;;;;;4969040;28;20054;-62
2022/12/01 10:09:06;;;;;;;23.23;10.57;;;7.50;99.90;;;;;;4961518;28;20050;-63
2022/12/01 10:11:35;;;;;;;18.27;10.77;;;7.50;99.90;;;;;;4968967;28;20043;-62
2022/12/01 10:14:02;;;;;;;23.02;12.57;;;7.50;99.90;;;;;;4978248;28;20074;-61
2022/12/01 10:16:34;;;;;;;20.48;10.32;;;7.50;99.90;;;;;;4967178;28;20062;-62
2022/12/01 10:19:04;;;;;;;23.98;11.75;;;7.60;99.90;;;;;;4962959;28;20078;-62
2022/12/01 10:21:52;;;;;;;23.48;10.80;;;7.60;99.90;;;;;;4970821;28;20082;-62
2022/12/01 10:24:31;;;;;;;20.50;11.07;;;7.60;99.90;;;;;;4982142;28;20093;-62
2022/12/01 10:27:26;;;;;;;20.15;12.90;;;7.70;99.90;;;;;;4972465;28;20137;-62
2022/12/01 10:30:11;;;;;;;21.30;11.68;;;7.80;99.90;;;;;;4966391;28;20079;-62
2022/12/01 10:32:57;;;;;;;21.42;12.23;;;7.90;99.90;;;;;;4957707;28;20491;-61
2022/12/01 10:35:26;;;;;;;19.90;11.10;;;7.90;99.90;;;;;;4965554;28;20097;-62
2022/12/01 10:37:57;;;;;;;23.52;12.98;;;8.10;99.90;;;;;;4983304;28;20109;-61
2022/12/01 10:40:25;;;;;;;23.40;11.82;;;8.20;99.90;;;;;;4963996;28;20074;-61
2022/12/01 10:42:52;;;;;;;21.02;12.10;;;8.30;99.90;;;;;;4971941;28;20047;-61
2022/12/01 10:45:33;;;;;;;21.45;11.93;;;8.40;99.90;;;;;;4972170;28;20146;-62
2022/12/01 10:48:15;;;;;;;17.60;10.98;;;8.50;99.90;;;;;;4970625;28;20442;-61
2022/12/01 10:50:45;;;;;;;25.73;11.25;;;8.50;99.90;;;;;;4972078;28;20061;-61
2022/12/01 10:53:25;;;;;;;19.95;10.70;;;8.60;99.90;;;;;;4971458;28;20514;-61
2022/12/01 10:56:09;;;;;;;22.45;10.45;;;8.60;99.90;;;;;;4972110;28;20474;-61
2022/12/01 10:58:54;;;;;;;19.67;10.32;;;8.50;99.90;;;;;;4973860;28;20050;-61
2022/12/01 11:01:22;;;;;;;18.10;9.77;;;8.50;99.90;;;;;;4971526;28;20054;-61
2022/12/01 11:03:58;;;;;;;16.05;10.50;;;8.50;99.90;;;;;;4970123;28;20074;-60
2022/12/01 11:06:27;;;;;;;20.67;10.00;;;8.60;99.90;;;;;;4964357;28;20066;-61
2022/12/01 11:09:02;;;;;;;18.00;9.55;;;8.60;99.90;;;;;;4982988;28;20053;-61
2022/12/01 11:11:35;;;;;;;14.90;8.75;;;8.60;99.90;;;;;;4970462;28;20055;-61
2022/12/01 11:14:06;;;;;;;25.80;10.50;;;8.60;99.90;;;;;;4954262;28;20093;-62
2022/12/01 11:16:42;;;;;;;14.77;9.32;;;8.70;99.90;;;;;;4962607;28;20134;-62
2022/12/01 11:19:31;;;;;;;18.77;10.82;;;8.60;99.90;;;;;;4986085;28;20698;-62
2022/12/01 11:22:17;;;;;;;20.88;11.23;;;8.60;99.90;;;;;;4970979;28;20086;-62
2022/12/01 11:25:02;;;;;;;20.58;10.88;;;8.60;99.90;;;;;;4970888;28;20490;-61
2022/12/01 11:27:35;;;;;;;19.38;10.93;;;8.60;99.90;;;;;;4970837;28;20093;-61
2022/12/01 11:30:13;;;;;;;24.92;9.73;;;8.60;99.90;;;;;;4974053;28;20294;-61
2022/12/01 11:32:40;;;;;;;18.92;9.85;;;8.70;99.90;;;;;;4968412;28;20058;-62
2022/12/01 11:35:18;;;;;;;22.05;10.00;;;8.70;99.90;;;;;;4953685;28;20520;-62
2022/12/01 11:37:56;;;;;;;19.00;9.60;;;8.80;99.90;;;;;;4966747;28;20100;-62
2022/12/01 11:40:56;;;;;;;17.05;10.27;;;8.80;99.90;;;;;;4978878;28;20049;-62
2022/12/01 11:43:32;;;;;;;17.75;9.52;;;8.80;99.90;;;;;;4969614;28;20050;-62
2022/12/01 11:46:02;;;;;;;21.30;10.88;;;8.80;99.90;;;;;;4969261;28;20086;-62
2022/12/01 11:48:31;;;;;;;19.20;10.75;;;8.90;99.90;;;;;;4970825;28;20078;-62
2022/12/01 11:51:14;;;;;;;15.73;9.63;;;8.90;99.90;;;;;;4973678;28;20046;-62
2022/12/01 11:53:41;;;;;;;27.63;9.30;;;8.90;99.90;;;;;;4969091;28;20502;-61
2022/12/01 11:56:41;;;;;;;15.25;7.97;;;8.90;99.90;;;;;;4970420;28;20085;-61
2022/12/01 11:59:25;;;;;;;14.13;8.13;;;8.90;99.90;;;;;;4944856;28;20055;-61
2022/12/01 12:02:14;;;;;;;12.15;7.40;;;8.90;99.90;;;;;;4969173;28;20078;-61
2022/12/01 12:05:05;;;;;;;13.88;6.78;;;9.00;99.90;;;;;;4971034;28;20051;-61
2022/12/01 12:07:36;;;;;;;18.35;7.43;;;9.00;99.90;;;;;;4967615;28;20070;-61
2022/12/01 12:10:26;;;;;;;15.10;6.65;;;9.00;99.90;;;;;;4969184;28;20429;-61
2022/12/01 12:13:12;;;;;;;11.57;6.95;;;9.10;99.90;;;;;;4965648;28;20053;-61
2022/12/01 12:16:04;;;;;;;14.80;7.28;;;9.20;99.90;;;;;;4968807;28;20105;-61
2022/12/01 12:18:36;;;;;;;16.98;6.82;;;9.20;99.90;;;;;;4960631;28;20126;-61
2022/12/01 12:21:33;;;;;;;12.80;6.78;;;9.10;99.90;;;;;;4969795;28;20576;-62
2022/12/01 12:24:06;;;;;;;19.08;6.82;;;9.10;99.90;;;;;;4969548;28;20117;-62
2022/12/01 12:27:07;;;;;;;15.85;7.53;;;9.10;99.90;;;;;;4969698;28;20129;-61
2022/12/01 12:29:49;;;;;;;14.38;6.63;;;9.10;99.90;;;;;;4951262;28;20345;-61
2022/12/01 12:32:25;;;;;;;12.75;6.45;;;9.10;99.90;;;;;;4969787;28;20097;-61
2022/12/01 12:35:17;;;;;;;10.68;6.55;;;9.20;99.90;;;;;;4970009;28;20055;-61
2022/12/01 12:37:53;;;;;;;14.98;6.85;;;9.10;99.90;;;;;;4969533;28;20435;-61
2022/12/01 12:40:56;;;;;;;14.20;5.45;;;9.20;99.90;;;;;;4951337;28;20051;-61
2022/12/01 12:43:48;;;;;;;10.75;6.65;;;9.30;99.90;;;;;;4983041;28;20085;-61
2022/12/01 12:46:24;;;;;;;14.27;6.55;;;9.40;99.90;;;;;;4968722;28;20620;-60
2022/12/01 12:48:51;;;;;;;16.63;5.95;;;9.50;99.90;;;;;;4968510;28;20093;-60
2022/12/01 12:51:39;;;;;;;10.50;5.35;;;9.60;99.90;;;;;;4969322;28;20079;-60
2022/12/01 12:54:20;;;;;;;11.23;6.32;;;9.70;99.90;;;;;;4968207;28;20073;-62
2022/12/01 12:56:52;;;;;;;13.15;5.38;;;9.70;99.90;;;;;;4968162;28;20057;-63
2022/12/01 12:59:20;;;;;;;12.63;6.13;;;9.80;99.90;;;;;;4952298;28;20076;-62
2022/12/01 13:02:01;;;;;;;16.42;6.38;;;9.70;99.90;;;;;;4967738;28;20101;-61
2022/12/01 13:04:44;;;;;;;16.58;6.20;;;9.70;99.90;;;;;;4965516;28;20050;-61
2022/12/01 13:07:14;;;;;;;15.05;5.18;;;9.70;99.90;;;;;;4952421;28;20092;-61